createdAt,value
2018-04-14T00:00:32.152Z,18.00
2018-04-14T00:01:32.158Z,21.50
2018-04-14T00:02:32.182Z,13.10
2018-04-14T00:03:32.391Z,12.20
2018-04-14T00:04:32.191Z,14.10
2018-04-14T00:05:32.221Z,14.60
2018-04-14T00:06:32.209Z,13.60
2018-04-14T00:07:32.228Z,11.50
2018-04-14T00:08:32.269Z,14.80
2018-04-14T00:09:32.258Z,14.30
2018-04-14T00:10:32.268Z,15.70
2018-04-14T00:11:32.280Z,16.30
2018-04-14T00:12:32.288Z,15.90
2018-04-14T00:13:32.351Z,14.90
2018-04-14T00:14:32.305Z,18.30
2018-04-14T00:15:32.323Z,21.40
2018-04-14T00:16:32.350Z,16.20
2018-04-14T00:17:32.346Z,16.00
2018-04-14T00:18:32.367Z,22.80
2018-04-14T00:19:32.352Z,18.10
2018-04-14T00:20:32.398Z,22.00
2018-04-14T00:21:32.395Z,15.50
2018-04-14T00:22:32.407Z,15.60
2018-04-14T00:23:32.463Z,15.80
2018-04-14T00:24:32.417Z,15.40
2018-04-14T00:25:32.424Z,17.60
2018-04-14T00:26:32.439Z,14.40
2018-04-14T00:27:32.475Z,18.40
2018-04-14T00:28:32.455Z,15.10
2018-04-14T00:29:32.494Z,16.70
2018-04-14T00:30:32.470Z,18.40
2018-04-14T00:31:32.480Z,16.80
2018-04-14T00:32:32.506Z,20.40
2018-04-14T00:33:32.573Z,16.60
2018-04-14T00:34:32.603Z,23.70
2018-04-14T00:35:32.568Z,21.60
2018-04-14T00:36:32.539Z,21.80
2018-04-14T00:37:32.557Z,21.30
2018-04-14T00:38:32.575Z,22.30
2018-04-14T00:39:32.577Z,21.80
2018-04-14T00:40:32.624Z,19.20
2018-04-14T00:41:32.600Z,19.90
2018-04-14T00:42:32.613Z,21.10
2018-04-14T00:43:32.615Z,21.60
2018-04-14T00:44:32.633Z,20.70
2018-04-14T00:45:32.682Z,20.90
2018-04-14T00:46:32.664Z,30.20
2018-04-14T00:47:32.668Z,24.60
2018-04-14T00:48:32.666Z,27.00
2018-04-14T00:49:32.690Z,22.70
2018-04-14T00:50:32.741Z,25.10
2018-04-14T00:51:32.769Z,23.10
2018-04-14T00:52:32.721Z,15.80
2018-04-14T00:53:32.742Z,17.90
2018-04-14T00:54:32.734Z,20.80
2018-04-14T00:55:32.763Z,19.40
2018-04-14T00:56:32.806Z,21.10
2018-04-14T00:57:32.769Z,18.10
2018-04-14T00:58:32.778Z,17.60
2018-04-14T00:59:32.822Z,18.50
2018-04-14T01:00:32.819Z,17.20
2018-04-14T01:01:32.835Z,20.50
2018-04-14T01:02:32.848Z,18.70
2018-04-14T01:03:32.845Z,18.10
2018-04-14T01:04:32.918Z,14.10
2018-04-14T01:05:32.866Z,14.90
2018-04-14T01:06:32.869Z,17.80
2018-04-14T01:07:32.893Z,20.20
2018-04-14T01:08:32.888Z,19.30
2018-04-14T01:09:32.929Z,17.40
2018-04-14T01:10:32.968Z,18.00
2018-04-14T01:11:32.953Z,17.90
2018-04-14T01:12:32.968Z,15.90
2018-04-14T01:13:32.960Z,18.00
2018-04-14T01:14:32.955Z,17.80
2018-04-14T01:15:33.000Z,17.40
2018-04-14T01:16:32.984Z,17.90
2018-04-14T01:17:33.027Z,17.40
2018-04-14T01:18:33.024Z,18.20
2018-04-14T01:19:33.033Z,17.60
2018-04-14T01:20:33.071Z,19.00
2018-04-14T01:21:33.050Z,17.80
2018-04-14T01:22:33.108Z,17.80
2018-04-14T01:23:33.071Z,18.00
2018-04-14T01:24:33.071Z,17.50
2018-04-14T01:25:33.126Z,16.60
2018-04-14T01:26:33.095Z,16.00
2018-04-14T01:27:33.116Z,17.30
2018-04-14T01:28:33.109Z,16.50
2018-04-14T01:29:33.142Z,20.20
2018-04-14T01:30:33.167Z,23.20
2018-04-14T01:31:33.183Z,21.30
2018-04-14T01:32:33.151Z,22.80
2018-04-14T01:33:33.200Z,21.70
2018-04-14T01:34:33.176Z,18.20
2018-04-14T01:35:33.195Z,18.50
2018-04-14T01:36:33.237Z,17.90
2018-04-14T01:37:33.207Z,18.80
2018-04-14T01:38:33.229Z,19.40
2018-04-14T01:39:33.290Z,18.60
2018-04-14T01:40:33.266Z,20.30
2018-04-14T01:41:33.257Z,24.50
2018-04-14T01:42:33.263Z,23.10
2018-04-14T01:43:33.280Z,22.60
2018-04-14T01:44:33.329Z,22.30
2018-04-14T01:45:33.309Z,19.00
2018-04-14T01:46:33.313Z,19.30
2018-04-14T01:47:33.326Z,21.10
2018-04-14T01:48:33.329Z,21.40
2018-04-14T01:49:33.376Z,22.00
2018-04-14T01:50:33.355Z,23.00
2018-04-14T01:51:33.382Z,24.60
2018-04-14T01:52:33.373Z,21.80
2018-04-14T01:53:33.393Z,21.50
2018-04-14T01:54:33.432Z,21.20
2018-04-14T01:55:33.426Z,22.30
2018-04-14T01:56:33.454Z,22.00
2018-04-14T01:57:33.438Z,20.30
2018-04-14T01:58:33.460Z,22.80
2018-04-14T01:59:33.477Z,23.90
2018-04-14T02:00:33.518Z,24.10
2018-04-14T02:01:33.518Z,23.50
2018-04-14T02:02:33.489Z,24.30
2018-04-14T02:03:33.505Z,24.80
2018-04-14T02:04:33.506Z,20.70
2018-04-14T02:05:33.521Z,22.10
2018-04-14T02:06:33.587Z,25.00
2018-04-14T02:07:33.556Z,24.30
2018-04-14T02:08:33.540Z,24.90
2018-04-14T02:09:33.589Z,27.00
2018-04-14T02:10:33.582Z,25.10
2018-04-14T02:11:33.620Z,27.50
2018-04-14T02:12:33.596Z,23.90
2018-04-14T02:13:33.612Z,25.80
2018-04-14T02:14:33.631Z,24.60
2018-04-14T02:15:33.631Z,26.40
2018-04-14T02:16:33.682Z,28.30
2018-04-14T02:17:33.648Z,28.80
2018-04-14T02:18:33.652Z,27.70
2018-04-14T02:19:33.674Z,29.80
2018-04-14T02:20:33.698Z,27.60
2018-04-14T02:21:33.739Z,24.90
2018-04-14T02:22:33.699Z,29.30
2018-04-14T02:23:33.717Z,29.00
2018-04-14T02:24:33.731Z,26.00
2018-04-14T02:25:33.736Z,26.00
2018-04-14T02:26:33.786Z,28.70
2018-04-14T02:27:33.762Z,29.00
2018-04-14T02:28:33.775Z,29.80
2018-04-14T02:29:33.789Z,28.80
2018-04-14T02:30:33.799Z,30.80
2018-04-14T02:31:33.850Z,28.20
2018-04-14T02:32:33.812Z,31.80
2018-04-14T02:33:33.819Z,29.40
2018-04-14T02:34:33.835Z,28.40
2018-04-14T02:35:33.863Z,29.00
2018-04-14T02:36:33.887Z,31.20
2018-04-14T02:37:33.878Z,29.20
2018-04-14T02:38:33.868Z,28.40
2018-04-14T02:39:33.892Z,27.20
2018-04-14T02:40:33.902Z,26.50
2018-04-14T02:41:33.952Z,27.20
2018-04-14T02:42:33.926Z,31.00
2018-04-14T02:43:33.939Z,29.80
2018-04-14T02:44:33.938Z,26.90
2018-04-14T02:45:33.953Z,28.40
2018-04-14T02:46:34.017Z,29.00
2018-04-14T02:47:33.964Z,27.20
2018-04-14T02:48:33.979Z,29.40
2018-04-14T02:49:33.990Z,28.90
2018-04-14T02:50:34.012Z,30.40
2018-04-14T02:51:34.058Z,27.70
2018-04-14T02:52:34.044Z,29.80
2018-04-14T02:53:34.049Z,29.90
2018-04-14T02:54:34.052Z,30.30
2018-04-14T02:55:34.071Z,29.50
2018-04-14T02:56:34.120Z,29.10
2018-04-14T02:57:34.111Z,28.10
2018-04-14T02:58:34.099Z,26.90
2018-04-14T02:59:34.107Z,27.60
2018-04-14T03:00:34.111Z,27.90
2018-04-14T03:01:34.164Z,28.60
2018-04-14T03:02:34.128Z,26.70
2018-04-14T03:03:34.190Z,28.50
2018-04-14T03:04:34.174Z,27.40
2018-04-14T03:05:34.183Z,29.10
2018-04-14T03:06:34.189Z,27.30
2018-04-14T03:07:34.194Z,28.50
2018-04-14T03:08:34.243Z,33.30
2018-04-14T03:09:34.217Z,31.10
2018-04-14T03:10:34.218Z,30.80
2018-04-14T03:11:34.285Z,31.10
2018-04-14T03:12:34.251Z,27.30
2018-04-14T03:13:34.253Z,29.40
2018-04-14T03:14:34.261Z,31.00
2018-04-14T03:15:34.292Z,29.80
2018-04-14T03:16:34.358Z,27.20
2018-04-14T03:17:34.321Z,29.40
2018-04-14T03:18:34.320Z,26.70
2018-04-14T03:19:34.336Z,28.00
2018-04-14T03:20:34.345Z,28.10
2018-04-14T03:21:34.341Z,27.80
2018-04-14T03:22:34.399Z,27.80
2018-04-14T03:23:34.370Z,30.50
2018-04-14T03:24:34.374Z,30.30
2018-04-14T03:25:34.389Z,26.50
2018-04-14T03:26:34.414Z,27.80
2018-04-14T03:27:34.428Z,31.90
2018-04-14T03:28:34.419Z,30.40
2018-04-14T03:29:34.436Z,28.30
2018-04-14T03:30:34.431Z,28.60
2018-04-14T03:31:34.463Z,28.40
2018-04-14T03:32:34.502Z,28.70
2018-04-14T03:33:34.474Z,29.10
2018-04-14T03:34:34.479Z,28.80
2018-04-14T03:35:34.488Z,33.60
2018-04-14T03:36:34.512Z,31.80
2018-04-14T03:37:34.557Z,30.80
2018-04-14T03:38:34.565Z,27.80
2018-04-14T03:39:34.587Z,29.70
2018-04-14T03:40:34.553Z,29.00
2018-04-14T03:41:34.565Z,30.80
2018-04-14T03:42:34.569Z,30.90
2018-04-14T03:43:34.582Z,31.90
2018-04-14T03:44:34.632Z,32.40
2018-04-14T03:45:34.619Z,31.00
2018-04-14T03:46:34.618Z,30.80
2018-04-14T03:47:34.679Z,31.20
2018-04-14T03:48:34.635Z,31.70
2018-04-14T03:49:34.638Z,32.00
2018-04-14T03:50:34.661Z,30.70
2018-04-14T03:51:34.659Z,34.20
2018-04-14T03:52:34.742Z,30.90
2018-04-14T03:53:34.683Z,31.70
2018-04-14T03:54:34.700Z,33.00
2018-04-14T03:55:34.736Z,31.30
2018-04-14T03:56:34.743Z,29.60
2018-04-14T03:57:34.738Z,31.70
2018-04-14T03:58:34.776Z,31.90
2018-04-14T03:59:34.776Z,31.10
2018-04-14T04:00:34.769Z,31.90
2018-04-14T04:01:34.777Z,30.00
2018-04-14T04:02:34.794Z,27.80
2018-04-14T04:03:34.827Z,27.70
2018-04-14T04:04:34.831Z,25.90
2018-04-14T04:05:34.817Z,25.10
2018-04-14T04:06:34.833Z,25.40
2018-04-14T04:07:34.846Z,24.90
2018-04-14T04:08:34.849Z,25.50
2018-04-14T04:09:34.899Z,23.20
2018-04-14T04:10:34.945Z,23.00
2018-04-14T04:11:34.902Z,21.30
2018-04-14T04:12:34.905Z,22.40
2018-04-14T04:13:34.912Z,21.90
2018-04-14T04:14:34.929Z,22.70
2018-04-14T04:15:34.958Z,24.20
2018-04-14T04:16:34.991Z,21.00
2018-04-14T04:17:34.951Z,23.30
2018-04-14T04:18:34.957Z,22.90
2018-04-14T04:19:34.966Z,24.10
2018-04-14T04:20:34.988Z,23.70
2018-04-14T04:21:35.066Z,22.90
2018-04-14T04:22:34.998Z,25.10
2018-04-14T04:23:35.028Z,25.00
2018-04-14T04:24:35.018Z,26.40
2018-04-14T04:25:35.032Z,26.30
2018-04-14T04:26:35.103Z,30.30
2018-04-14T04:27:35.065Z,26.30
2018-04-14T04:28:35.082Z,27.90
2018-04-14T04:29:35.077Z,27.80
2018-04-14T04:30:35.096Z,26.60
2018-04-14T04:31:35.140Z,27.90
2018-04-14T04:32:35.149Z,29.40
2018-04-14T04:33:35.116Z,27.40
2018-04-14T04:34:35.126Z,25.40
2018-04-14T04:35:35.143Z,28.10
2018-04-14T04:36:35.179Z,28.00
2018-04-14T04:37:35.166Z,26.00
2018-04-14T04:38:35.179Z,26.70
2018-04-14T04:39:35.216Z,27.30
2018-04-14T04:40:35.204Z,27.80
2018-04-14T04:41:35.219Z,25.80
2018-04-14T04:42:35.273Z,23.90
2018-04-14T04:43:35.223Z,24.60
2018-04-14T04:44:35.237Z,24.30
2018-04-14T04:45:35.256Z,24.80
2018-04-14T04:46:35.255Z,24.50
2018-04-14T04:47:35.299Z,23.90
2018-04-14T04:48:35.318Z,24.50
2018-04-14T04:49:35.291Z,23.10
2018-04-14T04:50:35.298Z,22.50
2018-04-14T04:51:35.314Z,23.30
2018-04-14T04:52:35.313Z,22.30
2018-04-14T04:53:35.390Z,22.10
2018-04-14T04:54:35.341Z,23.00
2018-04-14T04:55:35.359Z,22.40
2018-04-14T04:56:35.350Z,22.70
2018-04-14T04:57:35.380Z,23.70
2018-04-14T04:58:35.413Z,23.90
2018-04-14T04:59:35.418Z,22.50
2018-04-14T05:00:35.404Z,23.70
2018-04-14T05:01:35.418Z,24.30
2018-04-14T05:02:35.421Z,23.20
2018-04-14T05:03:35.425Z,22.50
2018-04-14T05:04:35.472Z,24.20
2018-04-14T05:05:35.506Z,24.20
2018-04-14T05:06:35.468Z,25.70
2018-04-14T05:07:35.495Z,22.70
2018-04-14T05:08:35.481Z,24.30
2018-04-14T05:09:35.492Z,27.10
2018-04-14T05:10:35.530Z,25.70
2018-04-14T05:11:35.503Z,29.20
2018-04-14T05:12:35.534Z,28.60
2018-04-14T05:13:35.530Z,27.70
2018-04-14T05:14:35.537Z,27.20
2018-04-14T05:15:35.596Z,28.90
2018-04-14T05:16:35.553Z,30.00
2018-04-14T05:17:35.563Z,30.80
2018-04-14T05:18:35.581Z,33.10
2018-04-14T05:19:35.610Z,31.60
2018-04-14T05:20:35.627Z,31.10
2018-04-14T05:21:35.648Z,31.00
2018-04-14T05:22:35.642Z,31.40
2018-04-14T05:23:35.659Z,32.90
2018-04-14T05:24:35.634Z,33.00
2018-04-14T05:25:35.652Z,35.10
2018-04-14T05:26:35.736Z,35.10
2018-04-14T05:27:35.668Z,34.30
2018-04-14T05:28:35.712Z,36.20
2018-04-14T05:29:35.683Z,36.90
2018-04-14T05:30:35.711Z,34.00
2018-04-14T05:31:35.704Z,37.80
2018-04-14T05:32:35.736Z,37.00
2018-04-14T05:33:35.740Z,36.40
2018-04-14T05:34:35.804Z,37.70
2018-04-14T05:35:35.756Z,37.60
2018-04-14T05:36:35.753Z,38.10
2018-04-14T05:37:35.797Z,38.20
2018-04-14T05:38:35.785Z,38.80
2018-04-14T05:39:35.834Z,38.80
2018-04-14T05:40:35.795Z,38.60
2018-04-14T05:41:35.818Z,38.70
2018-04-14T05:42:35.822Z,39.50
2018-04-14T05:43:35.823Z,36.90
2018-04-14T05:44:35.904Z,38.00
2018-04-14T05:45:35.859Z,37.90
2018-04-14T05:46:35.871Z,39.50
2018-04-14T05:47:35.875Z,37.50
2018-04-14T05:48:35.889Z,37.50
2018-04-14T05:49:35.903Z,37.70
2018-04-14T05:50:35.926Z,39.50
2018-04-14T05:51:35.973Z,37.20
2018-04-14T05:52:35.949Z,36.90
2018-04-14T05:53:35.940Z,37.40
2018-04-14T05:54:35.968Z,38.20
2018-04-14T05:55:35.968Z,37.00
2018-04-14T05:56:35.970Z,39.00
2018-04-14T05:57:35.992Z,37.40
2018-04-14T05:58:35.987Z,38.00
2018-04-14T05:59:36.072Z,34.80
2018-04-14T06:00:36.006Z,36.30
2018-04-14T06:01:36.008Z,35.70
2018-04-14T06:02:36.021Z,36.50
2018-04-14T06:03:36.029Z,37.80
2018-04-14T06:04:36.040Z,35.80
2018-04-14T06:05:36.083Z,35.90
2018-04-14T06:06:36.112Z,36.00
2018-04-14T06:07:36.074Z,36.70
2018-04-14T06:08:36.079Z,37.10
2018-04-14T06:09:36.102Z,36.40
2018-04-14T06:10:36.129Z,35.70
2018-04-14T06:11:36.200Z,37.00
2018-04-14T06:12:36.124Z,34.90
2018-04-14T06:13:36.149Z,37.10
2018-04-14T06:14:36.195Z,35.40
2018-04-14T06:15:36.169Z,35.50
2018-04-14T06:16:36.184Z,35.30
2018-04-14T06:17:36.253Z,35.10
2018-04-14T06:18:36.223Z,35.00
2018-04-14T06:19:36.193Z,36.10
2018-04-14T06:20:36.223Z,36.20
2018-04-14T06:21:36.234Z,35.60
2018-04-14T06:22:36.228Z,36.40
2018-04-14T06:23:36.272Z,33.90
2018-04-14T06:24:36.283Z,35.10
2018-04-14T06:25:36.273Z,36.10
2018-04-14T06:26:36.272Z,35.10
2018-04-14T06:27:36.274Z,35.20
2018-04-14T06:28:36.337Z,33.60
2018-04-14T06:29:36.305Z,33.70
2018-04-14T06:30:36.321Z,34.70
2018-04-14T06:31:36.326Z,33.40
2018-04-14T06:32:36.397Z,34.80
2018-04-14T06:33:36.405Z,34.50
2018-04-14T06:34:36.373Z,31.40
2018-04-14T06:35:36.363Z,33.00
2018-04-14T06:36:36.373Z,33.70
2018-04-14T06:37:36.399Z,33.90
2018-04-14T06:38:36.409Z,35.00
2018-04-14T06:39:36.467Z,33.40
2018-04-14T06:40:36.412Z,32.30
2018-04-14T06:41:36.436Z,34.00
2018-04-14T06:42:36.486Z,34.50
2018-04-14T06:43:36.486Z,33.50
2018-04-14T06:44:36.453Z,31.90
2018-04-14T06:45:36.549Z,31.70
2018-04-14T06:46:36.487Z,33.20
2018-04-14T06:47:36.500Z,33.20
2018-04-14T06:48:36.530Z,32.20
2018-04-14T06:49:36.520Z,33.60
2018-04-14T06:50:36.916Z,34.40
2018-04-14T06:51:36.567Z,34.70
2018-04-14T06:52:36.546Z,34.40
2018-04-14T06:53:36.620Z,35.00
2018-04-14T06:54:36.604Z,37.10
2018-04-14T06:55:36.570Z,36.40
2018-04-14T06:56:36.594Z,38.70
2018-04-14T06:57:36.596Z,38.00
2018-04-14T06:58:36.623Z,37.10
2018-04-14T06:59:36.670Z,39.40
2018-04-14T07:00:36.768Z,40.10
2018-04-14T07:01:36.673Z,41.00
2018-04-14T07:02:36.650Z,40.20
2018-04-14T07:03:36.682Z,40.50
2018-04-14T07:04:36.737Z,39.10
2018-04-14T07:05:36.710Z,41.30
2018-04-14T07:06:36.789Z,42.00
2018-04-14T07:07:36.714Z,43.30
2018-04-14T07:08:36.716Z,42.00
2018-04-14T07:09:36.725Z,42.40
2018-04-14T07:10:36.736Z,42.60
2018-04-14T07:11:36.808Z,44.70
2018-04-14T07:12:36.785Z,44.60
2018-04-14T07:13:36.783Z,42.00
2018-04-14T07:14:36.786Z,43.20
2018-04-14T07:15:36.841Z,43.10
2018-04-14T07:16:36.857Z,45.00
2018-04-14T07:17:36.815Z,45.20
2018-04-14T07:18:36.866Z,46.30
2018-04-14T07:19:36.845Z,44.00
2018-04-14T07:20:36.892Z,42.20
2018-04-14T07:21:36.850Z,44.40
2018-04-14T07:22:36.875Z,44.30
2018-04-14T07:23:36.925Z,45.00
2018-04-14T07:24:36.933Z,44.60
2018-04-14T07:25:36.903Z,44.90
2018-04-14T07:26:36.915Z,46.40
2018-04-14T07:27:36.970Z,45.00
2018-04-14T07:28:36.927Z,44.60
2018-04-14T07:29:36.986Z,44.60
2018-04-14T07:30:36.983Z,44.10
2018-04-14T07:31:36.967Z,46.10
2018-04-14T07:32:36.987Z,43.50
2018-04-14T07:33:36.999Z,43.60
2018-04-14T07:34:37.056Z,44.50
2018-04-14T07:35:37.047Z,44.80
2018-04-14T07:36:37.018Z,44.60
2018-04-14T07:37:37.083Z,42.90
2018-04-14T07:38:37.067Z,43.40
2018-04-14T07:39:37.101Z,44.70
2018-04-14T07:40:37.114Z,43.90
2018-04-14T07:41:37.099Z,43.50
2018-04-14T07:42:37.153Z,43.10
2018-04-14T07:43:37.101Z,43.70
2018-04-14T07:44:37.118Z,45.40
2018-04-14T07:45:37.599Z,43.40
2018-04-14T07:46:37.138Z,44.10
2018-04-14T07:47:37.160Z,42.40
2018-04-14T07:48:37.166Z,44.80
2018-04-14T07:49:37.217Z,44.10
2018-04-14T07:50:37.198Z,46.10
2018-04-14T07:51:37.292Z,44.80
2018-04-14T07:52:37.238Z,45.70
2018-04-14T07:53:37.220Z,45.80
2018-04-14T07:54:37.228Z,45.90
2018-04-14T07:55:37.266Z,46.40
2018-04-14T07:56:37.322Z,46.10
2018-04-14T07:57:37.307Z,46.20
2018-04-14T07:58:37.283Z,47.10
2018-04-14T07:59:37.277Z,47.40
2018-04-14T08:00:37.355Z,47.90
2018-04-14T08:01:37.309Z,47.50
2018-04-14T08:02:37.347Z,48.40
2018-04-14T08:03:37.372Z,49.30
2018-04-14T08:04:37.453Z,48.50
2018-04-14T08:05:37.369Z,51.10
2018-04-14T08:06:37.373Z,52.30
2018-04-14T08:07:37.428Z,52.30
2018-04-14T08:08:37.414Z,53.30
2018-04-14T08:09:37.422Z,52.70
2018-04-14T08:10:37.436Z,52.00
2018-04-14T08:11:37.474Z,53.00
2018-04-14T08:12:37.498Z,51.60
2018-04-14T08:13:37.456Z,51.90
2018-04-14T08:14:37.495Z,51.10
2018-04-14T08:15:37.463Z,50.20
2018-04-14T08:16:37.530Z,51.50
2018-04-14T08:17:37.588Z,51.70
2018-04-14T08:18:37.528Z,50.90
2018-04-14T08:19:37.530Z,52.70
2018-04-14T08:20:37.550Z,51.10
2018-04-14T08:21:37.556Z,52.40
2018-04-14T08:22:37.605Z,51.50
2018-04-14T08:23:37.578Z,50.50
2018-04-14T08:24:37.577Z,51.30
2018-04-14T08:25:37.620Z,50.40
2018-04-14T08:26:37.595Z,50.40
2018-04-14T08:27:37.683Z,50.30
2018-04-14T08:28:37.656Z,50.70
2018-04-14T08:29:37.640Z,51.40
2018-04-14T08:30:37.639Z,51.80
2018-04-14T08:31:37.669Z,52.40
2018-04-14T08:32:37.705Z,51.90
2018-04-14T08:33:37.670Z,51.40
2018-04-14T08:34:37.705Z,51.80
2018-04-14T08:35:37.715Z,54.20
2018-04-14T08:36:38.005Z,53.40
2018-04-14T08:37:37.858Z,57.10
2018-04-14T08:38:37.743Z,55.70
2018-04-14T08:39:37.743Z,53.30
2018-04-14T08:40:37.761Z,52.80
2018-04-14T08:41:37.783Z,53.70
2018-04-14T08:42:37.827Z,53.50
2018-04-14T08:43:37.841Z,53.70
2018-04-14T08:44:37.848Z,51.80
2018-04-14T08:45:37.867Z,50.70
2018-04-14T08:46:37.822Z,52.50
2018-04-14T08:47:37.985Z,50.80
2018-04-14T08:48:37.855Z,51.40
2018-04-14T08:49:37.894Z,51.70
2018-04-14T08:50:37.872Z,52.40
2018-04-14T08:51:37.900Z,51.20
2018-04-14T08:52:37.909Z,51.70
2018-04-14T08:53:37.943Z,52.00
2018-04-14T08:54:37.943Z,51.80
2018-04-14T08:55:37.938Z,53.00
2018-04-14T08:56:37.940Z,52.30
2018-04-14T08:57:37.973Z,53.80
2018-04-14T08:58:37.999Z,54.10
2018-04-14T08:59:38.091Z,53.10
2018-04-14T09:00:38.001Z,53.60
2018-04-14T09:01:38.021Z,50.30
2018-04-14T09:02:38.054Z,50.20
2018-04-14T09:03:38.036Z,49.80
2018-04-14T09:04:38.156Z,50.70
2018-04-14T09:05:38.073Z,50.80
2018-04-14T09:06:38.108Z,49.10
2018-04-14T09:07:38.084Z,49.10
2018-04-14T09:08:38.130Z,48.10
2018-04-14T09:09:38.179Z,47.60
2018-04-14T09:10:38.134Z,48.40
2018-04-14T09:11:38.135Z,47.20
2018-04-14T09:12:38.169Z,47.80
2018-04-14T09:13:38.150Z,49.20
2018-04-14T09:14:38.286Z,48.40
2018-04-14T09:15:38.180Z,48.40
2018-04-14T09:16:38.188Z,50.10
2018-04-14T09:17:38.208Z,48.90
2018-04-14T09:18:38.302Z,52.10
2018-04-14T09:19:38.217Z,51.70
2018-04-14T09:20:38.269Z,52.80
2018-04-14T09:21:38.284Z,51.10
2018-04-14T09:22:38.265Z,48.80
2018-04-14T09:23:38.287Z,49.70
2018-04-14T09:24:38.308Z,51.60
2018-04-14T09:25:38.343Z,48.20
2018-04-14T09:26:38.399Z,47.20
2018-04-14T09:27:38.360Z,48.30
2018-04-14T09:28:38.363Z,47.70
2018-04-14T09:29:38.359Z,47.20
2018-04-14T09:30:38.359Z,46.60
2018-04-14T09:31:38.413Z,47.40
2018-04-14T09:32:38.374Z,46.20
2018-04-14T09:33:38.437Z,46.00
2018-04-14T09:34:38.422Z,45.20
2018-04-14T09:35:38.439Z,44.70
2018-04-14T09:36:38.480Z,44.80
2018-04-14T09:37:38.478Z,47.10
2018-04-14T09:38:38.463Z,44.50
2018-04-14T09:39:38.512Z,44.90
2018-04-14T09:40:38.494Z,44.90
2018-04-14T09:41:38.528Z,46.30
2018-04-14T09:42:38.514Z,44.10
2018-04-14T09:43:38.541Z,44.30
2018-04-14T09:44:38.531Z,42.40
2018-04-14T09:45:38.537Z,42.10
2018-04-14T09:46:38.579Z,41.90
2018-04-14T09:47:38.650Z,40.80
2018-04-14T09:48:38.573Z,40.10
2018-04-14T09:49:38.763Z,39.70
2018-04-14T09:50:38.606Z,39.50
2018-04-14T09:51:38.616Z,39.40
2018-04-14T09:52:38.628Z,38.20
2018-04-14T09:53:38.642Z,40.10
2018-04-14T09:54:38.692Z,39.20
2018-04-14T09:55:38.719Z,38.80
2018-04-14T09:56:38.664Z,38.80
2018-04-14T09:57:38.698Z,37.90
2018-04-14T09:58:38.718Z,38.80
2018-04-14T09:59:38.722Z,37.80
2018-04-14T10:00:38.811Z,37.60
2018-04-14T10:01:38.743Z,37.90
2018-04-14T10:02:38.767Z,36.30
2018-04-14T10:03:38.821Z,36.30
2018-04-14T10:04:38.976Z,36.00
2018-04-14T10:05:38.800Z,35.30
2018-04-14T10:06:38.822Z,34.20
2018-04-14T10:07:38.815Z,34.20
2018-04-14T10:08:38.903Z,35.00
2018-04-14T10:09:38.848Z,32.30
2018-04-14T10:10:38.893Z,31.40
2018-04-14T10:11:38.912Z,32.80
2018-04-14T10:12:39.109Z,34.20
2018-04-14T10:13:38.969Z,31.30
2018-04-14T10:14:38.941Z,31.40
2018-04-14T10:15:38.986Z,30.60
2018-04-14T10:16:38.925Z,31.70
2018-04-14T10:17:38.947Z,30.70
2018-04-14T10:18:38.954Z,30.50
2018-04-14T10:19:39.041Z,29.90
2018-04-14T10:20:39.027Z,30.00
2018-04-14T10:21:38.991Z,30.10
2018-04-14T10:22:39.005Z,29.30
2018-04-14T10:23:39.019Z,29.30
2018-04-14T10:24:39.025Z,30.30
2018-04-14T10:25:39.093Z,28.10
2018-04-14T10:26:39.088Z,28.80
2018-04-14T10:27:39.107Z,28.40
2018-04-14T10:28:39.070Z,28.80
2018-04-14T10:29:39.118Z,28.90
2018-04-14T10:30:39.095Z,29.10
2018-04-14T10:31:39.155Z,29.20
2018-04-14T10:32:39.147Z,30.20
2018-04-14T10:33:39.132Z,29.30
2018-04-14T10:34:39.154Z,28.30
2018-04-14T10:35:39.246Z,28.80
2018-04-14T10:36:39.224Z,27.40
2018-04-14T10:37:39.202Z,28.50
2018-04-14T10:38:39.210Z,28.90
2018-04-14T10:39:39.205Z,29.90
2018-04-14T10:40:39.231Z,29.60
2018-04-14T10:41:39.288Z,29.60
2018-04-14T10:42:39.261Z,29.70
2018-04-14T10:43:39.288Z,28.40
2018-04-14T10:44:39.294Z,28.20
2018-04-14T10:45:39.286Z,28.30
2018-04-14T10:46:39.352Z,27.90
2018-04-14T10:47:39.324Z,28.40
2018-04-14T10:48:39.370Z,27.60
2018-04-14T10:49:39.378Z,27.20
2018-04-14T10:50:39.373Z,27.60
2018-04-14T10:51:39.461Z,27.50
2018-04-14T10:52:39.375Z,27.10
2018-04-14T10:53:39.398Z,27.40
2018-04-14T10:54:39.415Z,26.20
2018-04-14T10:55:39.457Z,26.30
2018-04-14T10:56:39.461Z,26.60
2018-04-14T10:57:39.441Z,27.10
2018-04-14T10:58:39.527Z,27.30
2018-04-14T10:59:39.501Z,27.50
2018-04-14T11:00:39.488Z,27.70
2018-04-14T11:01:39.531Z,27.60
2018-04-14T11:02:39.506Z,25.70
2018-04-14T11:03:39.536Z,26.40
2018-04-14T11:04:39.549Z,26.00
2018-04-14T11:05:39.550Z,25.90
2018-04-14T11:06:39.586Z,27.30
2018-04-14T11:07:39.598Z,26.70
2018-04-14T11:08:39.603Z,26.80
2018-04-14T11:09:39.617Z,26.90
2018-04-14T11:10:39.670Z,26.20
2018-04-14T11:11:39.648Z,26.90
2018-04-14T11:12:39.663Z,26.70
2018-04-14T11:13:39.661Z,25.70
2018-04-14T11:14:39.809Z,27.30
2018-04-14T11:15:39.717Z,26.90
2018-04-14T11:16:39.712Z,26.70
2018-04-14T11:17:39.727Z,26.60
2018-04-14T11:18:39.763Z,27.40
2018-04-14T11:19:39.731Z,28.20
2018-04-14T11:20:39.744Z,27.70
2018-04-14T11:21:39.788Z,27.00
2018-04-14T11:22:39.785Z,26.50
2018-04-14T11:23:39.842Z,26.30
2018-04-14T11:24:39.811Z,27.70
2018-04-14T11:25:39.850Z,27.90
2018-04-14T11:26:39.831Z,26.70
2018-04-14T11:27:39.886Z,27.90
2018-04-14T11:28:39.880Z,27.20
2018-04-14T11:29:39.877Z,26.90
2018-04-14T11:30:39.890Z,28.00
2018-04-14T11:31:39.906Z,27.00
2018-04-14T11:32:39.924Z,28.00
2018-04-14T11:33:40.015Z,28.30
2018-04-14T11:34:39.945Z,28.20
2018-04-14T11:35:39.941Z,27.50
2018-04-14T11:36:39.996Z,26.80
2018-04-14T11:37:39.967Z,27.20
2018-04-14T11:38:40.039Z,25.60
2018-04-14T11:39:39.996Z,25.60
2018-04-14T11:40:40.070Z,26.80
2018-04-14T11:41:40.034Z,25.50
2018-04-14T11:42:40.048Z,25.00
2018-04-14T11:43:40.069Z,24.20
2018-04-14T11:44:40.076Z,25.50
2018-04-14T11:45:40.112Z,26.50
2018-04-14T11:46:40.101Z,26.50
2018-04-14T11:47:40.149Z,24.90
2018-04-14T11:48:40.133Z,23.80
2018-04-14T11:49:40.140Z,24.80
2018-04-14T11:50:40.157Z,24.50
2018-04-14T11:51:40.159Z,25.50
2018-04-14T11:52:40.314Z,24.60
2018-04-14T11:53:40.208Z,25.20
2018-04-14T11:54:40.227Z,24.80
2018-04-14T11:55:40.223Z,26.10
2018-04-14T11:56:40.225Z,25.70
2018-04-14T11:57:40.252Z,27.40
2018-04-14T11:58:40.302Z,25.40
2018-04-14T11:59:40.266Z,27.00
2018-04-14T12:00:40.274Z,25.90
2018-04-14T12:01:40.300Z,25.90
2018-04-14T12:02:40.340Z,26.00
2018-04-14T12:03:40.340Z,27.00
2018-04-14T12:04:40.396Z,27.20
2018-04-14T12:05:40.394Z,25.90
2018-04-14T12:06:40.354Z,27.10
2018-04-14T12:07:40.386Z,26.30
2018-04-14T12:08:40.390Z,26.70
2018-04-14T12:09:40.438Z,28.50
2018-04-14T12:10:40.450Z,25.70
2018-04-14T12:11:40.439Z,26.30
2018-04-14T12:12:40.437Z,26.80
2018-04-14T12:13:40.494Z,26.20
2018-04-14T12:14:40.581Z,27.30
2018-04-14T12:15:40.548Z,27.10
2018-04-14T12:16:40.591Z,28.10
2018-04-14T12:17:40.565Z,27.10
2018-04-14T12:18:40.525Z,27.80
2018-04-14T12:19:40.540Z,28.10
2018-04-14T12:20:40.579Z,30.00
2018-04-14T12:21:40.689Z,27.80
2018-04-14T12:22:40.610Z,28.80
2018-04-14T12:23:40.582Z,27.70
2018-04-14T12:24:40.632Z,29.20
2018-04-14T12:25:40.599Z,29.20
2018-04-14T12:26:40.652Z,30.70
2018-04-14T12:27:40.792Z,31.00
2018-04-14T12:28:40.647Z,31.90
2018-04-14T12:29:40.706Z,33.70
2018-04-14T12:30:40.687Z,35.10
2018-04-14T12:31:40.705Z,34.20
2018-04-14T12:32:40.719Z,36.40
2018-04-14T12:33:40.913Z,35.40
2018-04-14T12:34:40.760Z,41.90
2018-04-14T12:35:40.748Z,37.10
2018-04-14T12:36:40.777Z,39.70
2018-04-14T12:37:40.755Z,38.40
2018-04-14T12:38:40.822Z,38.70
2018-04-14T12:39:40.841Z,38.30
2018-04-14T12:40:40.803Z,37.00
2018-04-14T12:41:40.837Z,38.90
2018-04-14T12:42:40.852Z,36.20
2018-04-14T12:43:40.839Z,39.60
2018-04-14T12:44:40.896Z,43.30
2018-04-14T12:45:40.852Z,37.40
2018-04-14T12:46:40.907Z,38.40
2018-04-14T12:47:40.903Z,38.90
2018-04-14T12:48:40.914Z,37.00
2018-04-14T12:49:40.920Z,36.10
2018-04-14T12:50:40.975Z,37.10
2018-04-14T12:51:40.939Z,40.30
2018-04-14T12:52:40.943Z,41.70